Beland, Oklahoma
Current Conditions -  °F | °C
As of 10:53 AM on Monday 22 Dec 2014 (Local Time) from KMKO Reporting Station
Overcast Overcast  
Wind Chill: 50°   Ceiling: 3300
Heat Index: 50°   Visibility: 9mi
Dew Point: 47°   Wind: 5mph
Humidity: 89%   Direction: 170°S
Pressure: 29.6"   Gusts: NA
Location:  35.6818°N, 95.3578°W
Report Text: KMKO 221653Z AUTO 17004KT 9SM FEW019 SCT026 OVC033 10/08 A2960 RMK AO2 SLP023 T01000083
Loading
Personal Weather Stations






























Interactive Weather Map New forecast layout! Learn more

10-Day Weather Forecast

Advertisements
Track Severe Weather on mobile